الصفحة الرئيسية
METAR-TAF:

METAR-TAF

مطار :

تشيتا, روسيا

دائرة عرض: 52-05N, خط طول: 113-29E, ارتفاع: 685 متر

مراقبة الطقس الحالي

تاريخ ووقت الإصدار 30 دقيقة قبل الساعة 23:30UTC
ريح 2 عقدةمن اتجاهات متغيرة
درجة الحرارة 1°درجة مئوية
الرطوبة 80%
ضغط 1012 hPa
الرؤية 10 كم أو أكثر
غيوم متفرقة على ارتفاع 3600 قدم, مزنة ركامية.

METAR: UIAA 202330Z VRB01MPS 9999 SCT036CB 01/M02 Q1012 R29/CLRD70 NOSIG RMK QFE701/0934

زمن: 09:00 (00:00 UTC)

توقعات

تاريخ ووقت الإصدار 1ساعة و 0 دقيقة قبل الساعة 23:00UTC
التوقعات صالحة من21 الساعة 00 UTC إلى 21 الساعة 24 UTC
ريح 6 عقدة من الغرب
الرؤية 10 كم أو أكثر
غيوم مفككة على ارتفاع 2700 قدم, مزنة ركامية.
مؤقت
من 21 الساعة 03 UTC إلى 21 الساعة 24 UTC
الرؤية: 3100 متر
ملبد بالغيوم على ارتفاع 1400 قدم, مزنة ركامية.
زخات ثلجية خفيفة

TAF: UIAA 202300Z 2100/2124 28003MPS 9999 BKN027CB TEMPO 2103/2124 3100 -SHSN OVC014CB

أرصاد الطقس والتوقعات من أكثر من 4000 مطار (تقارير الطقس للمطار METAR والتنبؤ بالطقس بالمطارTAF).

المحطات المتاحة هي النقط الصفراء والحمراء على الخريطة.

حرك المؤشر فوق النقطة لمعرفة اسم المحطة.

ثم انقر لمعرفة أرصاد وتوقعات الطقس.

لتغيير الخارطة: اضغط على الأزرار الخضراء مع رمز الصليب الأسود للتكبير. على الزر الأخضر مع شرطة للتصغير، أو على الأسهم الخضراء للخرائط المجاورة.


METAR-TAF: